Time;durP1;ratioP1;P1;durP2;ratioP2;P2;SDS_P1;SDS_P2;PMS_P1;PMS_P2;Temp;Humidity;BMP_temperature;BMP_pressure;BME280_temperature;BME280_humidity;BME280_pressure;Samples;Min_cycle;Max_cycle;Signal;HPM_P1;HPM_P2
2022/07/20 00:00:48;;;;;;;5.57;2.15;;;;;;;;;;5135829;27;20031;-75
2022/07/20 00:03:14;;;;;;;6.85;2.17;;;;;;;;;;5136035;27;20114;-75
2022/07/20 00:05:41;;;;;;;4.25;2.40;;;;;;;;;;5133514;27;20035;-75
2022/07/20 00:08:08;;;;;;;13.43;2.35;;;;;;;;;;5134468;27;20089;-75
2022/07/20 00:13:18;;;;;;;13.23;3.10;;;;;;;;;;5135859;27;20039;-75
2022/07/20 00:15:44;;;;;;;4.93;2.58;;;;;;;;;;5135518;27;20041;-75
2022/07/20 00:18:10;;;;;;;3.92;2.42;;;;;;;;;;5134436;27;20070;-75
2022/07/20 00:20:36;;;;;;;7.28;2.88;;;;;;;;;;5134956;27;20570;-75
2022/07/20 00:23:03;;;;;;;3.10;2.45;;;;;;;;;;5134584;27;20125;-75
2022/07/20 00:25:28;;;;;;;3.83;2.33;;;;;;;;;;5135321;27;20088;-75
2022/07/20 00:27:54;;;;;;;6.28;2.22;;;;;;;;;;5133123;27;20039;-75
2022/07/20 00:30:19;;;;;;;4.43;2.25;;;;;;;;;;5134880;27;20031;-75
2022/07/20 00:32:45;;;;;;;5.88;2.47;;;;;;;;;;5134018;27;20100;-75
2022/07/20 00:35:13;;;;;;;7.35;3.20;;;;;;;;;;5133379;27;20476;-75
2022/07/20 00:37:39;;;;;;;3.78;2.28;;;;;;;;;;5116994;27;20031;-75
2022/07/20 00:40:06;;;;;;;5.43;2.53;;;;;;;;;;5134830;27;20078;-75
2022/07/20 00:42:33;;;;;;;4.90;2.67;;;;;;;;;;5133968;27;20589;-75
2022/07/20 00:44:59;;;;;;;5.93;1.95;;;;;;;;;;5116550;27;20023;-75
2022/07/20 00:47:24;;;;;;;4.07;2.05;;;;;;;;;;5133398;27;20042;-75
2022/07/20 00:49:50;;;;;;;5.95;2.30;;;;;;;;;;5134671;27;20035;-75
2022/07/20 00:52:15;;;;;;;3.85;2.40;;;;;;;;;;5116671;27;20039;-75
2022/07/20 00:54:41;;;;;;;2.85;2.00;;;;;;;;;;5134502;27;20039;-75
2022/07/20 00:57:06;;;;;;;3.30;2.15;;;;;;;;;;5134853;27;20023;-75
2022/07/20 00:59:32;;;;;;;5.72;2.40;;;;;;;;;;5134645;27;20057;-75
2022/07/20 01:01:57;;;;;;;3.95;2.20;;;;;;;;;;5134709;27;20053;-75
2022/07/20 01:04:23;;;;;;;3.10;2.40;;;;;;;;;;5116167;27;20038;-75
2022/07/20 01:06:49;;;;;;;3.45;2.00;;;;;;;;;;5116014;27;20453;-75
2022/07/20 01:09:18;;;;;;;5.93;2.20;;;;;;;;;;5115382;27;20434;-75
2022/07/20 01:11:44;;;;;;;3.30;2.13;;;;;;;;;;5134668;27;20071;-75
2022/07/20 01:14:10;;;;;;;6.65;2.20;;;;;;;;;;5133386;27;20079;-75
2022/07/20 01:16:37;;;;;;;5.20;2.50;;;;;;;;;;5134369;27;20472;-75
2022/07/20 01:19:03;;;;;;;7.10;2.38;;;;;;;;;;5134408;27;20042;-75
2022/07/20 01:21:30;;;;;;;7.88;2.67;;;;;;;;;;5133293;27;20496;-75
2022/07/20 01:23:55;;;;;;;4.90;3.20;;;;;;;;;;5115965;27;20126;-75
2022/07/20 01:26:21;;;;;;;3.45;2.50;;;;;;;;;;5133153;27;20114;-75
2022/07/20 01:28:47;;;;;;;4.38;2.47;;;;;;;;;;5134353;27;20079;-75
2022/07/20 01:31:12;;;;;;;7.47;2.40;;;;;;;;;;5134230;27;20039;-75
2022/07/20 01:33:38;;;;;;;5.28;2.20;;;;;;;;;;5133154;27;20046;-75
2022/07/20 01:36:04;;;;;;;4.80;2.47;;;;;;;;;;5115830;27;20031;-75
2022/07/20 01:38:29;;;;;;;2.97;2.20;;;;;;;;;;5133748;27;20031;-75
2022/07/20 01:40:54;;;;;;;6.13;2.30;;;;;;;;;;5132728;28;20043;-75
2022/07/20 01:43:20;;;;;;;4.38;2.70;;;;;;;;;;5134357;27;20372;-75
2022/07/20 01:45:45;;;;;;;3.70;2.38;;;;;;;;;;5133922;27;20034;-75
2022/07/20 01:48:11;;;;;;;6.32;2.40;;;;;;;;;;5132232;27;20037;-75
2022/07/20 01:50:38;;;;;;;4.85;2.15;;;;;;;;;;5134037;27;20027;-75
2022/07/20 01:53:04;;;;;;;5.05;2.38;;;;;;;;;;5115121;28;20038;-75
2022/07/20 01:55:29;;;;;;;4.10;2.47;;;;;;;;;;5133995;27;20035;-75
2022/07/20 01:57:55;;;;;;;3.55;2.30;;;;;;;;;;5115617;28;20023;-75
2022/07/20 02:00:20;;;;;;;4.05;2.13;;;;;;;;;;5132677;27;20019;-75
2022/07/20 02:02:46;;;;;;;3.00;2.20;;;;;;;;;;5132868;28;20358;-75
2022/07/20 02:05:11;;;;;;;4.95;2.53;;;;;;;;;;5134051;27;20441;-75
2022/07/20 02:07:37;;;;;;;4.03;2.08;;;;;;;;;;5132658;28;20031;-75
2022/07/20 02:10:05;;;;;;;3.95;2.58;;;;;;;;;;5114858;27;20035;-74
2022/07/20 02:12:31;;;;;;;6.95;2.97;;;;;;;;;;5132479;28;20503;-76
2022/07/20 02:14:56;;;;;;;5.40;2.75;;;;;;;;;;5132425;28;20035;-76
2022/07/20 02:17:22;;;;;;;5.45;2.35;;;;;;;;;;5132537;27;20031;-77
2022/07/20 02:19:47;;;;;;;4.80;2.60;;;;;;;;;;5133337;28;20045;-77
2022/07/20 02:22:13;;;;;;;3.58;2.42;;;;;;;;;;5133006;28;20027;-77
2022/07/20 02:24:38;;;;;;;3.83;2.65;;;;;;;;;;5132446;27;20528;-76
2022/07/20 02:27:04;;;;;;;9.45;2.42;;;;;;;;;;5133211;27;20035;-75
2022/07/20 02:29:29;;;;;;;8.30;2.78;;;;;;;;;;5133649;27;20080;-75
2022/07/20 02:31:54;;;;;;;4.72;2.78;;;;;;;;;;5115374;27;20468;-75
2022/07/20 02:34:20;;;;;;;4.95;2.20;;;;;;;;;;5131637;27;20043;-75
2022/07/20 02:36:45;;;;;;;3.58;2.38;;;;;;;;;;5133637;27;20053;-75
2022/07/20 02:39:11;;;;;;;6.32;2.33;;;;;;;;;;5132267;27;20429;-75
2022/07/20 02:41:36;;;;;;;4.05;2.30;;;;;;;;;;5133656;27;20073;-74
2022/07/20 02:44:02;;;;;;;4.55;2.20;;;;;;;;;;5133639;27;20034;-74
2022/07/20 02:46:27;;;;;;;7.80;2.15;;;;;;;;;;5132341;27;20088;-75
2022/07/20 02:48:52;;;;;;;2.35;1.88;;;;;;;;;;5133545;27;20522;-75
2022/07/20 02:51:18;;;;;;;2.90;2.22;;;;;;;;;;5117656;27;20113;-76
2022/07/20 02:53:43;;;;;;;6.20;2.50;;;;;;;;;;5137023;27;20143;-76
2022/07/20 02:56:09;;;;;;;3.63;2.20;;;;;;;;;;5137020;27;20043;-76
2022/07/20 02:58:34;;;;;;;8.15;2.78;;;;;;;;;;5135811;27;20031;-76
2022/07/20 03:00:59;;;;;;;5.35;3.55;;;;;;;;;;5137213;27;20392;-76
2022/07/20 03:03:25;;;;;;;5.43;2.58;;;;;;;;;;5136117;27;20035;-76
2022/07/20 03:05:51;;;;;;;4.82;2.58;;;;;;;;;;5119258;27;20050;-74
2022/07/20 03:08:16;;;;;;;4.57;2.42;;;;;;;;;;5156357;27;20031;-75
2022/07/20 03:10:42;;;;;;;6.18;2.95;;;;;;;;;;5157581;27;20052;-75
2022/07/20 03:13:07;;;;;;;4.13;2.35;;;;;;;;;;5139094;27;20377;-75
2022/07/20 03:15:33;;;;;;;3.83;2.40;;;;;;;;;;5157517;27;20495;-75
2022/07/20 03:17:59;;;;;;;6.32;2.35;;;;;;;;;;5138796;27;20052;-75
2022/07/20 03:20:30;;;;;;;3.65;2.35;;;;;;;;;;5157181;27;20034;-75
2022/07/20 03:22:56;;;;;;;6.88;3.47;;;;;;;;;;5157451;27;20437;-75
2022/07/20 03:25:22;;;;;;;6.88;2.67;;;;;;;;;;5155933;27;20035;-75
2022/07/20 03:27:52;;;;;;;4.25;2.20;;;;;;;;;;5157296;27;20598;-75
2022/07/20 03:30:17;;;;;;;6.85;2.50;;;;;;;;;;5157420;27;20048;-75
2022/07/20 03:32:43;;;;;;;7.53;2.47;;;;;;;;;;5138693;27;20129;-75
2022/07/20 03:35:09;;;;;;;4.55;2.42;;;;;;;;;;5157194;27;20031;-75
2022/07/20 03:37:34;;;;;;;9.40;3.08;;;;;;;;;;5140599;27;20035;-75
2022/07/20 03:40:00;;;;;;;4.90;2.45;;;;;;;;;;5135243;27;20103;-75
2022/07/20 03:42:25;;;;;;;3.33;2.45;;;;;;;;;;5135196;27;20035;-74
2022/07/20 03:44:51;;;;;;;5.93;2.40;;;;;;;;;;5134982;27;20035;-75
2022/07/20 03:47:16;;;;;;;4.78;2.40;;;;;;;;;;5117840;27;20365;-75
2022/07/20 03:49:43;;;;;;;7.30;2.42;;;;;;;;;;5136352;27;20484;-75
2022/07/20 03:52:08;;;;;;;9.30;3.45;;;;;;;;;;5117811;27;20066;-75
2022/07/20 03:54:34;;;;;;;6.45;2.63;;;;;;;;;;5135915;27;20092;-74
2022/07/20 03:56:59;;;;;;;7.57;2.42;;;;;;;;;;5117716;27;20112;-75
2022/07/20 03:59:25;;;;;;;4.65;2.90;;;;;;;;;;5117586;27;20420;-75
2022/07/20 04:01:50;;;;;;;2.75;2.13;;;;;;;;;;5116389;27;20027;-75
2022/07/20 04:04:17;;;;;;;4.80;2.22;;;;;;;;;;5116474;27;20594;-75
2022/07/20 04:06:42;;;;;;;12.13;2.85;;;;;;;;;;5135480;27;20045;-75
2022/07/20 04:09:07;;;;;;;7.65;2.70;;;;;;;;;;5135902;27;20035;-75
2022/07/20 04:11:33;;;;;;;10.73;2.67;;;;;;;;;;5135693;27;20350;-75
2022/07/20 04:13:58;;;;;;;7.47;2.60;;;;;;;;;;5135792;27;20038;-75
2022/07/20 04:16:24;;;;;;;5.05;2.33;;;;;;;;;;5133953;27;20035;-75
2022/07/20 04:18:50;;;;;;;4.43;2.38;;;;;;;;;;5134226;27;20035;-75
2022/07/20 04:21:15;;;;;;;3.67;2.38;;;;;;;;;;5133803;27;20106;-75
2022/07/20 04:23:42;;;;;;;9.13;2.60;;;;;;;;;;5132795;27;20528;-75
2022/07/20 04:26:07;;;;;;;6.90;2.88;;;;;;;;;;5116663;27;20035;-75
2022/07/20 04:28:33;;;;;;;6.82;2.60;;;;;;;;;;5133525;27;20408;-75
2022/07/20 04:30:58;;;;;;;3.90;2.22;;;;;;;;;;5116472;27;20172;-75
2022/07/20 04:33:23;;;;;;;5.85;2.75;;;;;;;;;;5134610;27;20121;-75
2022/07/20 04:35:49;;;;;;;5.65;2.45;;;;;;;;;;5115435;27;20042;-75
2022/07/20 04:38:17;;;;;;;4.03;2.60;;;;;;;;;;5116986;27;20030;-75
2022/07/20 04:40:42;;;;;;;14.02;2.85;;;;;;;;;;5135217;27;20047;-75
2022/07/20 04:43:08;;;;;;;3.40;2.38;;;;;;;;;;5134907;27;20464;-75
2022/07/20 04:45:33;;;;;;;6.68;2.42;;;;;;;;;;5135120;27;20035;-75
2022/07/20 04:47:59;;;;;;;5.35;2.85;;;;;;;;;;5133979;27;20035;-75
2022/07/20 04:50:25;;;;;;;5.70;2.65;;;;;;;;;;5134801;27;20525;-75
2022/07/20 04:52:50;;;;;;;5.30;2.63;;;;;;;;;;5133959;27;20462;-75
2022/07/20 04:55:16;;;;;;;5.40;2.28;;;;;;;;;;5133484;27;20472;-75
2022/07/20 04:57:41;;;;;;;3.55;2.50;;;;;;;;;;5133626;27;20037;-74
2022/07/20 05:00:07;;;;;;;6.55;2.63;;;;;;;;;;5135041;27;20519;-75
2022/07/20 05:02:33;;;;;;;8.10;2.30;;;;;;;;;;5134937;27;20027;-75
2022/07/20 05:04:58;;;;;;;5.63;3.42;;;;;;;;;;5115674;27;20507;-75
2022/07/20 05:07:24;;;;;;;10.35;3.17;;;;;;;;;;5134011;27;20046;-75
2022/07/20 05:09:49;;;;;;;7.50;2.95;;;;;;;;;;5133081;27;20504;-74
2022/07/20 05:12:15;;;;;;;6.22;3.22;;;;;;;;;;5134673;27;20031;-75
2022/07/20 05:14:40;;;;;;;6.18;2.80;;;;;;;;;;5133804;27;20034;-75
2022/07/20 05:17:06;;;;;;;7.95;2.70;;;;;;;;;;5132395;27;20056;-75
2022/07/20 05:19:31;;;;;;;11.90;3.67;;;;;;;;;;5133083;27;20541;-75
2022/07/20 05:21:57;;;;;;;8.52;3.55;;;;;;;;;;5115502;27;20139;-75
2022/07/20 05:24:23;;;;;;;5.93;2.72;;;;;;;;;;5132936;27;20027;-75
2022/07/20 05:26:48;;;;;;;12.73;3.25;;;;;;;;;;5115917;27;20443;-75
2022/07/20 05:29:13;;;;;;;8.73;3.50;;;;;;;;;;5133104;27;20469;-75
2022/07/20 05:31:39;;;;;;;9.05;2.85;;;;;;;;;;5115955;27;20039;-75
2022/07/20 05:34:04;;;;;;;7.95;3.50;;;;;;;;;;5134509;27;20039;-75
2022/07/20 05:36:29;;;;;;;5.75;2.85;;;;;;;;;;5115614;28;20035;-75
2022/07/20 05:38:55;;;;;;;8.65;2.97;;;;;;;;;;5134552;27;20106;-75
2022/07/20 05:41:20;;;;;;;5.88;2.85;;;;;;;;;;5133900;27;20043;-75
2022/07/20 05:43:46;;;;;;;8.15;2.80;;;;;;;;;;5133615;27;20047;-75
2022/07/20 05:46:11;;;;;;;4.95;2.85;;;;;;;;;;5134163;27;20127;-75
2022/07/20 05:48:36;;;;;;;6.65;2.75;;;;;;;;;;5131981;27;20019;-75
2022/07/20 05:51:02;;;;;;;9.90;3.00;;;;;;;;;;5114306;28;20033;-75
2022/07/20 05:53:27;;;;;;;6.10;3.03;;;;;;;;;;5133460;27;20031;-75
2022/07/20 05:55:53;;;;;;;10.93;3.13;;;;;;;;;;5132247;27;20058;-76
2022/07/20 05:58:18;;;;;;;5.38;3.03;;;;;;;;;;5115233;28;20103;-75
2022/07/20 06:00:44;;;;;;;4.18;2.70;;;;;;;;;;5133403;27;20038;-77
2022/07/20 06:03:09;;;;;;;4.28;2.72;;;;;;;;;;5134164;27;20035;-77
2022/07/20 06:05:35;;;;;;;9.15;3.55;;;;;;;;;;5115132;28;20479;-76
2022/07/20 06:08:02;;;;;;;9.13;3.17;;;;;;;;;;5132099;27;20039;-75
2022/07/20 06:10:30;;;;;;;5.40;3.15;;;;;;;;;;5133307;27;20043;-77
2022/07/20 06:12:57;;;;;;;13.70;3.28;;;;;;;;;;5132276;28;20439;-78
2022/07/20 06:15:24;;;;;;;4.78;2.65;;;;;;;;;;5133837;27;20060;-76
2022/07/20 06:17:51;;;;;;;9.57;3.30;;;;;;;;;;5132937;28;20084;-75
2022/07/20 06:20:16;;;;;;;7.40;3.15;;;;;;;;;;5132735;27;20080;-75
2022/07/20 06:22:43;;;;;;;10.88;3.35;;;;;;;;;;5114695;28;20045;-76
2022/07/20 06:25:10;;;;;;;8.50;2.78;;;;;;;;;;5132119;27;20042;-75
2022/07/20 06:27:38;;;;;;;10.02;2.85;;;;;;;;;;5137056;27;20472;-76
2022/07/20 06:30:05;;;;;;;10.27;2.92;;;;;;;;;;5135642;27;20042;-76
2022/07/20 06:32:32;;;;;;;10.70;2.75;;;;;;;;;;5134171;27;20035;-76
2022/07/20 06:34:57;;;;;;;7.35;2.63;;;;;;;;;;5135066;27;20037;-76
2022/07/20 06:37:23;;;;;;;11.32;2.95;;;;;;;;;;5136429;27;20114;-76
2022/07/20 06:39:51;;;;;;;5.63;2.60;;;;;;;;;;5135116;27;20060;-76
2022/07/20 06:42:17;;;;;;;6.50;2.45;;;;;;;;;;5147356;27;20444;-76
2022/07/20 06:44:43;;;;;;;6.53;3.13;;;;;;;;;;5157402;27;20397;-76
2022/07/20 06:47:08;;;;;;;11.05;2.80;;;;;;;;;;5139113;27;20291;-76
2022/07/20 06:49:34;;;;;;;6.70;2.60;;;;;;;;;;5158055;27;20396;-76
2022/07/20 06:52:00;;;;;;;11.98;2.80;;;;;;;;;;5156606;27;20051;-76
2022/07/20 06:54:26;;;;;;;5.93;2.45;;;;;;;;;;5156850;27;20050;-76
2022/07/20 06:56:52;;;;;;;7.90;2.45;;;;;;;;;;5157747;27;20023;-76
2022/07/20 06:59:17;;;;;;;9.43;2.40;;;;;;;;;;5156932;27;20045;-76
2022/07/20 07:01:43;;;;;;;6.03;2.60;;;;;;;;;;5157690;27;20048;-76
2022/07/20 07:04:08;;;;;;;9.05;2.47;;;;;;;;;;5156515;27;20064;-77
2022/07/20 07:06:34;;;;;;;7.63;2.38;;;;;;;;;;5156602;27;20031;-75
2022/07/20 07:08:59;;;;;;;12.80;2.83;;;;;;;;;;5156449;27;20027;-75
2022/07/20 07:11:25;;;;;;;12.60;2.78;;;;;;;;;;5152851;27;20035;-75
2022/07/20 07:13:51;;;;;;;14.00;3.35;;;;;;;;;;5135777;27;20122;-75
2022/07/20 07:16:16;;;;;;;6.35;2.78;;;;;;;;;;5136598;27;20038;-75
2022/07/20 07:18:42;;;;;;;6.28;2.50;;;;;;;;;;5137003;27;20034;-75
2022/07/20 07:21:07;;;;;;;9.55;2.80;;;;;;;;;;5135427;27;20035;-75
2022/07/20 07:23:33;;;;;;;10.10;3.03;;;;;;;;;;5136797;27;20039;-75
2022/07/20 07:25:58;;;;;;;10.50;2.25;;;;;;;;;;5135685;27;20038;-75
2022/07/20 07:28:24;;;;;;;11.27;2.60;;;;;;;;;;5118052;27;20438;-75
2022/07/20 07:30:50;;;;;;;5.57;3.00;;;;;;;;;;5135929;27;20038;-75
2022/07/20 07:33:17;;;;;;;7.82;2.80;;;;;;;;;;5136753;27;20140;-76
2022/07/20 07:35:43;;;;;;;14.55;2.85;;;;;;;;;;5117679;27;20396;-76
2022/07/20 07:38:09;;;;;;;15.32;2.60;;;;;;;;;;5135469;27;20035;-76
2022/07/20 07:40:34;;;;;;;14.35;5.50;;;;;;;;;;5118147;27;20105;-76
2022/07/20 07:43:00;;;;;;;15.27;4.78;;;;;;;;;;5153448;27;20058;-76
2022/07/20 07:45:26;;;;;;;12.73;3.17;;;;;;;;;;5136270;27;20027;-77
2022/07/20 07:47:51;;;;;;;7.43;2.45;;;;;;;;;;5116212;28;20504;-77
2022/07/20 07:50:16;;;;;;;12.18;2.20;;;;;;;;;;5115402;28;20118;-77
2022/07/20 07:52:42;;;;;;;4.47;2.47;;;;;;;;;;5115632;28;20093;-77
2022/07/20 07:55:08;;;;;;;11.32;2.80;;;;;;;;;;5132920;27;20117;-77
2022/07/20 07:57:33;;;;;;;5.25;2.17;;;;;;;;;;5115642;28;20054;-77
2022/07/20 07:59:59;;;;;;;7.78;2.67;;;;;;;;;;5132036;27;20039;-77
2022/07/20 08:02:24;;;;;;;5.35;2.17;;;;;;;;;;5131848;27;20042;-77
2022/07/20 08:04:50;;;;;;;8.52;2.22;;;;;;;;;;5119349;27;20043;-78
2022/07/20 08:07:16;;;;;;;9.85;2.67;;;;;;;;;;5104250;27;20035;-81
2022/07/20 08:09:42;;;;;;;3.80;1.95;;;;;;;;;;5136777;27;20027;-81
2022/07/20 08:12:07;;;;;;;5.65;2.60;;;;;;;;;;5136811;27;20050;-80
2022/07/20 08:14:33;;;;;;;8.00;2.63;;;;;;;;;;5107839;27;20038;-80
2022/07/20 08:16:58;;;;;;;8.52;2.33;;;;;;;;;;5122617;27;20035;-80
2022/07/20 08:19:24;;;;;;;11.60;2.20;;;;;;;;;;5120227;27;20091;-81
2022/07/20 08:21:49;;;;;;;12.45;2.60;;;;;;;;;;5119894;27;20039;-77
2022/07/20 08:24:16;;;;;;;7.93;2.50;;;;;;;;;;5117279;27;20042;-78
2022/07/20 08:26:41;;;;;;;6.95;2.15;;;;;;;;;;5129746;27;20054;-75
2022/07/20 08:29:07;;;;;;;8.05;2.53;;;;;;;;;;5154624;27;20069;-75
2022/07/20 08:31:32;;;;;;;3.13;2.28;;;;;;;;;;5156232;27;20481;-75
2022/07/20 08:33:58;;;;;;;3.63;2.15;;;;;;;;;;5155982;27;20038;-75
2022/07/20 08:36:23;;;;;;;7.28;2.30;;;;;;;;;;5154700;27;20033;-75
2022/07/20 08:38:48;;;;;;;6.43;2.33;;;;;;;;;;5156073;27;20426;-76
2022/07/20 08:41:15;;;;;;;12.45;2.70;;;;;;;;;;5137390;27;20134;-77
2022/07/20 08:43:41;;;;;;;9.95;2.60;;;;;;;;;;5158453;27;20094;-78
2022/07/20 08:46:07;;;;;;;8.10;2.20;;;;;;;;;;5155471;27;20034;-77
2022/07/20 08:48:34;;;;;;;10.52;2.33;;;;;;;;;;5153586;27;20042;-77
2022/07/20 08:51:00;;;;;;;11.70;2.58;;;;;;;;;;5153601;27;20039;-77
2022/07/20 08:53:26;;;;;;;9.88;2.13;;;;;;;;;;5154913;27;20051;-77
2022/07/20 08:55:51;;;;;;;14.35;2.72;;;;;;;;;;5158058;27;20035;-78
2022/07/20 08:58:17;;;;;;;6.78;2.40;;;;;;;;;;5157434;27;20106;-78
2022/07/20 09:00:42;;;;;;;4.53;2.20;;;;;;;;;;5157366;27;20035;-77
2022/07/20 09:03:09;;;;;;;8.38;2.63;;;;;;;;;;5160196;27;20042;-77
2022/07/20 09:05:37;;;;;;;9.52;2.65;;;;;;;;;;5144504;27;20096;-78
2022/07/20 09:08:04;;;;;;;9.43;2.05;;;;;;;;;;5125648;27;20062;-78
2022/07/20 09:10:35;;;;;;;8.52;2.00;;;;;;;;;;5137468;27;20056;-77
2022/07/20 09:13:05;;;;;;;4.28;1.92;;;;;;;;;;5136368;27;20388;-76
2022/07/20 09:15:52;;;;;;;7.82;2.28;;;;;;;;;;5133238;27;20080;-76
2022/07/20 09:18:19;;;;;;;6.60;2.28;;;;;;;;;;5134762;27;20023;-77
2022/07/20 09:20:51;;;;;;;8.10;2.63;;;;;;;;;;5134278;27;20023;-77
2022/07/20 09:23:25;;;;;;;7.32;2.28;;;;;;;;;;5134312;27;20525;-76
2022/07/20 09:25:52;;;;;;;8.38;2.10;;;;;;;;;;5131364;27;20034;-76
2022/07/20 09:28:18;;;;;;;6.13;2.78;;;;;;;;;;5133269;27;20064;-77
2022/07/20 09:30:52;;;;;;;4.15;2.35;;;;;;;;;;5135956;27;20095;-80
2022/07/20 09:33:24;;;;;;;10.57;2.35;;;;;;;;;;5145836;27;20080;-79
2022/07/20 09:35:50;;;;;;;4.88;2.15;;;;;;;;;;5156068;27;20064;-80
2022/07/20 09:38:15;;;;;;;8.77;2.05;;;;;;;;;;5158858;27;20027;-81
2022/07/20 09:40:45;;;;;;;6.10;2.30;;;;;;;;;;5141576;27;20064;-83
2022/07/20 09:43:36;;;;;;;4.60;2.30;;;;;;;;;;5165785;27;20129;-82
2022/07/20 09:46:11;;;;;;;5.97;2.05;;;;;;;;;;5151519;27;20039;-83
2022/07/20 09:48:42;;;;;;;7.30;2.25;;;;;;;;;;5148055;27;20034;-78
2022/07/20 09:51:22;;;;;;;4.10;2.10;;;;;;;;;;5165732;27;20095;-83
2022/07/20 09:53:57;;;;;;;7.13;2.33;;;;;;;;;;5161350;27;20462;-81
2022/07/20 09:56:24;;;;;;;5.22;2.28;;;;;;;;;;5148592;27;20034;-81
2022/07/20 09:58:54;;;;;;;8.35;2.20;;;;;;;;;;5142682;27;20034;-81
2022/07/20 10:01:22;;;;;;;9.68;2.33;;;;;;;;;;5135332;27;20042;-81
2022/07/20 10:03:50;;;;;;;6.78;2.20;;;;;;;;;;5123771;27;20035;-78
2022/07/20 10:06:18;;;;;;;4.63;2.47;;;;;;;;;;5143191;27;20058;-79
2022/07/20 10:08:44;;;;;;;9.65;2.50;;;;;;;;;;5147199;27;20034;-79
2022/07/20 10:11:10;;;;;;;5.80;2.40;;;;;;;;;;5164699;27;20034;-80
2022/07/20 10:13:36;;;;;;;7.30;2.13;;;;;;;;;;5163181;27;20031;-78
2022/07/20 10:16:43;;;;;;;6.20;2.10;;;;;;;;;;5161746;27;20545;-79
2022/07/20 10:19:09;;;;;;;10.60;2.38;;;;;;;;;;5103914;28;20416;-81
2022/07/20 10:21:38;;;;;;;11.25;2.80;;;;;;;;;;5101984;28;20039;-79
2022/07/20 10:24:16;;;;;;;10.85;2.78;;;;;;;;;;5117425;28;20123;-77
2022/07/20 10:26:44;;;;;;;8.85;3.25;;;;;;;;;;5098845;28;20401;-77
2022/07/20 10:29:10;;;;;;;12.25;3.45;;;;;;;;;;5098952;28;20074;-75
2022/07/20 10:31:56;;;;;;;8.65;1.92;;;;;;;;;;5098364;28;20067;-75
2022/07/20 10:34:44;;;;;;;11.23;2.75;;;;;;;;;;5115774;28;20031;-76
2022/07/20 10:37:24;;;;;;;11.50;2.50;;;;;;;;;;5115088;28;20066;-75
2022/07/20 10:40:05;;;;;;;3.83;1.90;;;;;;;;;;5098635;28;20039;-76
2022/07/20 10:42:40;;;;;;;9.65;2.63;;;;;;;;;;5120205;27;20035;-75
2022/07/20 10:45:27;;;;;;;5.40;2.03;;;;;;;;;;5136158;27;20039;-76
2022/07/20 10:47:57;;;;;;;6.63;2.20;;;;;;;;;;5136307;27;20042;-76
2022/07/20 10:50:37;;;;;;;4.95;1.95;;;;;;;;;;5137482;27;20121;-76
2022/07/20 10:53:08;;;;;;;8.02;2.45;;;;;;;;;;5118130;27;20031;-76
2022/07/20 10:55:33;;;;;;;9.77;2.45;;;;;;;;;;5137160;27;20031;-76
2022/07/20 10:58:04;;;;;;;5.88;2.60;;;;;;;;;;5137071;27;20037;-75
2022/07/20 11:00:38;;;;;;;8.82;2.35;;;;;;;;;;5135332;27;20132;-76
2022/07/20 11:03:11;;;;;;;13.10;2.65;;;;;;;;;;5118953;27;20047;-76
2022/07/20 11:05:38;;;;;;;9.20;2.10;;;;;;;;;;5134295;27;20031;-76
2022/07/20 11:08:07;;;;;;;3.05;1.98;;;;;;;;;;5118376;27;20053;-76
2022/07/20 11:10:33;;;;;;;6.13;2.72;;;;;;;;;;5136196;27;20434;-76
2022/07/20 11:13:06;;;;;;;9.02;2.00;;;;;;;;;;5142577;27;20019;-75
2022/07/20 11:15:42;;;;;;;9.93;1.92;;;;;;;;;;5157067;27;20433;-76
2022/07/20 11:18:09;;;;;;;8.52;2.10;;;;;;;;;;5156303;27;20035;-76
2022/07/20 11:20:35;;;;;;;11.05;2.50;;;;;;;;;;5139154;27;20446;-76
2022/07/20 11:23:02;;;;;;;6.88;1.83;;;;;;;;;;5157376;27;20034;-76
2022/07/20 11:25:53;;;;;;;6.68;1.90;;;;;;;;;;5139070;27;20035;-76
2022/07/20 11:28:25;;;;;;;5.38;1.77;;;;;;;;;;5155467;27;20075;-76
2022/07/20 11:30:52;;;;;;;8.80;1.92;;;;;;;;;;5157274;27;20030;-76
2022/07/20 11:33:29;;;;;;;4.10;1.70;;;;;;;;;;5157134;27;20019;-76
2022/07/20 11:35:58;;;;;;;5.18;1.70;;;;;;;;;;5117930;27;20154;-76
2022/07/20 11:38:33;;;;;;;4.93;1.67;;;;;;;;;;5097819;28;20038;-76
2022/07/20 11:41:01;;;;;;;10.05;1.83;;;;;;;;;;5114531;28;20624;-77
2022/07/20 11:43:27;;;;;;;9.95;2.05;;;;;;;;;;5115409;28;20035;-75
2022/07/20 11:45:52;;;;;;;5.50;1.80;;;;;;;;;;5115082;28;20123;-76
2022/07/20 11:48:26;;;;;;;5.95;1.80;;;;;;;;;;5097100;28;20039;-76
2022/07/20 11:50:52;;;;;;;5.50;1.58;;;;;;;;;;5114539;28;20555;-76
2022/07/20 11:53:26;;;;;;;5.53;1.70;;;;;;;;;;5114381;28;20161;-76
2022/07/20 11:55:52;;;;;;;6.45;1.63;;;;;;;;;;5113037;28;20027;-76
2022/07/20 11:58:35;;;;;;;4.00;1.63;;;;;;;;;;5114078;28;20488;-76
2022/07/20 12:01:03;;;;;;;2.90;1.42;;;;;;;;;;5115773;28;20422;-76
2022/07/20 12:03:35;;;;;;;3.95;1.85;;;;;;;;;;5115003;28;20473;-76
2022/07/20 12:06:04;;;;;;;5.35;1.83;;;;;;;;;;5129669;27;20047;-76
2022/07/20 12:08:30;;;;;;;5.85;1.35;;;;;;;;;;5116506;27;20464;-76
2022/07/20 12:10:56;;;;;;;7.20;1.98;;;;;;;;;;5137744;27;20031;-79
2022/07/20 12:13:22;;;;;;;6.38;2.17;;;;;;;;;;5116976;27;20039;-76
2022/07/20 12:15:52;;;;;;;8.23;1.70;;;;;;;;;;5134682;27;20031;-76
2022/07/20 12:18:38;;;;;;;4.10;1.63;;;;;;;;;;5134558;27;20038;-76
2022/07/20 12:21:05;;;;;;;9.23;1.80;;;;;;;;;;5134363;27;20027;-76
2022/07/20 12:23:32;;;;;;;4.18;1.77;;;;;;;;;;5133813;27;20113;-76
2022/07/20 12:25:58;;;;;;;4.80;1.67;;;;;;;;;;5116929;27;20046;-76
2022/07/20 12:28:28;;;;;;;3.38;1.70;;;;;;;;;;5132525;27;20117;-76
2022/07/20 12:31:08;;;;;;;4.43;1.50;;;;;;;;;;5116402;27;20395;-76
2022/07/20 12:33:33;;;;;;;8.90;1.85;;;;;;;;;;5135232;27;20406;-77
2022/07/20 12:36:07;;;;;;;5.45;1.70;;;;;;;;;;5104833;28;20050;-78
2022/07/20 12:38:35;;;;;;;7.05;1.95;;;;;;;;;;5116335;28;20028;-79
2022/07/20 12:41:12;;;;;;;3.38;1.40;;;;;;;;;;5117146;28;20043;-78
2022/07/20 12:43:40;;;;;;;6.15;1.98;;;;;;;;;;5116247;28;20092;-78
2022/07/20 12:46:13;;;;;;;6.80;2.53;;;;;;;;;;5114833;28;20039;-78
2022/07/20 12:48:50;;;;;;;4.82;1.55;;;;;;;;;;5114027;28;20028;-77
2022/07/20 12:51:16;;;;;;;5.72;1.70;;;;;;;;;;5096427;28;20039;-77
2022/07/20 12:53:44;;;;;;;6.40;1.80;;;;;;;;;;5095596;28;20400;-77
2022/07/20 12:56:10;;;;;;;6.57;1.50;;;;;;;;;;5112025;28;20042;-76
2022/07/20 12:58:37;;;;;;;4.00;1.48;;;;;;;;;;5094296;28;20089;-76
2022/07/20 13:01:04;;;;;;;4.90;1.50;;;;;;;;;;5095206;28;20049;-76
2022/07/20 13:03:29;;;;;;;3.42;1.25;;;;;;;;;;5113106;28;20762;-76
2022/07/20 13:05:55;;;;;;;2.80;1.40;;;;;;;;;;5114111;28;20156;-76
2022/07/20 13:08:20;;;;;;;1.50;1.15;;;;;;;;;;5114313;28;20067;-76
2022/07/20 13:10:46;;;;;;;3.00;1.50;;;;;;;;;;5113395;28;20101;-76
2022/07/20 13:13:12;;;;;;;4.45;1.48;;;;;;;;;;5114050;28;20044;-76
2022/07/20 13:15:38;;;;;;;4.82;1.30;;;;;;;;;;5113992;28;20028;-76
2022/07/20 13:18:05;;;;;;;6.82;1.45;;;;;;;;;;5113438;28;20106;-76
2022/07/20 13:20:30;;;;;;;2.95;1.40;;;;;;;;;;5114370;28;20040;-76
2022/07/20 13:22:56;;;;;;;5.78;1.60;;;;;;;;;;5114253;28;20038;-76
2022/07/20 13:25:23;;;;;;;5.30;2.03;;;;;;;;;;5095708;28;20118;-76
2022/07/20 13:27:49;;;;;;;5.18;1.83;;;;;;;;;;5114013;28;20035;-76
2022/07/20 13:30:14;;;;;;;5.72;1.40;;;;;;;;;;5113870;28;20080;-76
2022/07/20 13:32:40;;;;;;;5.32;1.60;;;;;;;;;;5112649;28;20027;-76
2022/07/20 13:35:06;;;;;;;5.63;1.65;;;;;;;;;;5113827;28;20114;-76
2022/07/20 13:37:31;;;;;;;3.38;1.80;;;;;;;;;;5113659;28;20020;-76
2022/07/20 13:39:57;;;;;;;4.20;1.63;;;;;;;;;;5113713;28;20101;-76
2022/07/20 13:42:23;;;;;;;2.90;1.33;;;;;;;;;;5100693;27;20168;-76
2022/07/20 13:44:48;;;;;;;4.25;1.60;;;;;;;;;;5155127;27;20038;-76
2022/07/20 13:47:14;;;;;;;6.55;1.63;;;;;;;;;;5154825;27;20133;-76
2022/07/20 13:49:40;;;;;;;5.10;1.30;;;;;;;;;;5155357;27;20038;-76
2022/07/20 13:52:06;;;;;;;6.93;1.55;;;;;;;;;;5154882;27;20038;-76
2022/07/20 13:54:31;;;;;;;2.67;1.17;;;;;;;;;;5155030;27;20257;-76
2022/07/20 13:56:57;;;;;;;5.47;1.30;;;;;;;;;;5135977;27;20043;-76
2022/07/20 13:59:22;;;;;;;4.93;1.52;;;;;;;;;;5153822;27;20043;-77
2022/07/20 14:01:47;;;;;;;7.38;1.30;;;;;;;;;;5154865;27;20037;-76
2022/07/20 14:04:15;;;;;;;3.97;2.08;;;;;;;;;;5153272;27;20022;-76
2022/07/20 14:06:42;;;;;;;4.63;1.70;;;;;;;;;;5136063;27;20087;-77
2022/07/20 14:09:08;;;;;;;5.10;2.00;;;;;;;;;;5136256;27;20137;-76
2022/07/20 14:11:34;;;;;;;6.20;2.10;;;;;;;;;;5154695;27;20030;-76
2022/07/20 14:14:00;;;;;;;2.47;1.75;;;;;;;;;;5154745;27;20038;-77
2022/07/20 14:16:28;;;;;;;5.82;1.67;;;;;;;;;;5136250;27;20087;-76
2022/07/20 14:18:54;;;;;;;3.03;1.42;;;;;;;;;;5154799;27;20468;-76
2022/07/20 14:21:19;;;;;;;7.05;1.90;;;;;;;;;;5154658;27;20113;-76
2022/07/20 14:23:45;;;;;;;4.85;1.40;;;;;;;;;;5153187;27;20030;-76
2022/07/20 14:26:12;;;;;;;7.28;1.70;;;;;;;;;;5135833;27;20038;-76
2022/07/20 14:28:38;;;;;;;6.35;2.08;;;;;;;;;;5153371;27;20039;-76
2022/07/20 14:31:04;;;;;;;6.15;1.60;;;;;;;;;;5153688;27;20035;-76
2022/07/20 14:33:29;;;;;;;6.63;1.92;;;;;;;;;;5154623;27;20034;-76
2022/07/20 14:35:55;;;;;;;7.63;1.90;;;;;;;;;;5135824;27;20038;-76
2022/07/20 14:38:21;;;;;;;7.95;1.50;;;;;;;;;;5154440;27;20114;-76
2022/07/20 14:40:46;;;;;;;9.38;1.42;;;;;;;;;;5135776;27;20038;-76
2022/07/20 14:43:12;;;;;;;6.20;1.67;;;;;;;;;;5153077;27;20086;-76